createdAt,value
2019-05-19T00:00:49.469Z,9.50
2019-05-19T00:02:00.533Z,8.90
2019-05-19T00:03:10.376Z,9.40
2019-05-19T00:04:00.650Z,9.40
2019-05-19T00:04:56.565Z,9.90
2019-05-19T00:06:08.447Z,9.90
2019-05-19T00:07:18.388Z,10.00
2019-05-19T00:08:29.663Z,9.90
2019-05-19T00:09:35.709Z,10.10
2019-05-19T00:10:31.424Z,11.10
2019-05-19T00:11:39.306Z,9.80
2019-05-19T00:12:47.607Z,10.00
2019-05-19T00:13:51.607Z,9.60
2019-05-19T00:14:48.426Z,10.00
2019-05-19T00:16:06.889Z,9.60
2019-05-19T00:17:10.681Z,9.80
2019-05-19T00:18:15.292Z,10.10
2019-05-19T00:19:26.278Z,9.50
2019-05-19T00:20:23.313Z,9.80
2019-05-19T00:21:30.469Z,10.00
2019-05-19T00:22:33.236Z,10.00
2019-05-19T00:23:36.624Z,10.20
2019-05-19T00:24:52.499Z,9.90
2019-05-19T00:25:43.396Z,9.70
2019-05-19T00:26:56.410Z,9.80
2019-05-19T00:27:55.292Z,10.00
2019-05-19T00:28:59.718Z,9.70
2019-05-19T00:30:14.246Z,9.20
2019-05-19T00:31:15.483Z,9.10
2019-05-19T00:32:13.748Z,10.10
2019-05-19T00:33:31.775Z,10.00
2019-05-19T00:34:30.714Z,10.90
2019-05-19T00:35:35.500Z,10.80
2019-05-19T00:36:46.847Z,11.00
2019-05-19T00:37:53.620Z,10.30
2019-05-19T00:38:46.864Z,9.90
2019-05-19T00:40:05.306Z,9.60
2019-05-19T00:41:12.887Z,10.00
2019-05-19T00:42:12.586Z,9.40
2019-05-19T00:43:26.725Z,10.60
2019-05-19T00:44:19.971Z,10.00
2019-05-19T00:45:51.620Z,10.20
2019-05-19T00:46:30.434Z,9.90
2019-05-19T00:47:46.820Z,9.60
2019-05-19T00:48:48.980Z,10.50
2019-05-19T00:49:52.982Z,10.20
2019-05-19T00:51:09.781Z,10.40
2019-05-19T00:52:15.011Z,10.30
2019-05-19T00:53:13.787Z,10.70
2019-05-19T00:54:12.976Z,10.80
2019-05-19T00:55:18.824Z,10.60
2019-05-19T00:56:28.860Z,10.30
2019-05-19T00:57:32.042Z,10.40
2019-05-19T00:58:46.293Z,10.20
2019-05-19T00:59:42.114Z,10.80
2019-05-19T01:01:05.040Z,11.20
2019-05-19T01:01:46.507Z,11.20
2019-05-19T01:03:07.815Z,11.00
2019-05-19T01:04:00.763Z,11.20
2019-05-19T01:05:07.111Z,11.30
2019-05-19T01:06:11.529Z,11.20
2019-05-19T01:07:17.876Z,11.70
2019-05-19T01:08:16.862Z,11.70
2019-05-19T01:09:44.436Z,11.60
2019-05-19T01:10:44.586Z,11.70
2019-05-19T01:11:45.150Z,11.80
2019-05-19T01:12:56.729Z,12.50
2019-05-19T01:13:47.927Z,12.10
2019-05-19T01:14:55.916Z,12.20
2019-05-19T01:16:13.740Z,12.50
2019-05-19T01:17:18.872Z,12.80
2019-05-19T01:18:17.850Z,12.10
2019-05-19T01:19:26.869Z,11.90
2019-05-19T01:20:26.978Z,11.20
2019-05-19T01:21:32.720Z,11.30
2019-05-19T01:22:35.088Z,10.80
2019-05-19T01:23:44.815Z,11.80
2019-05-19T01:24:48.823Z,10.50
2019-05-19T01:25:56.000Z,10.90
2019-05-19T01:26:53.131Z,10.60
2019-05-19T01:28:05.937Z,10.80
2019-05-19T01:29:28.891Z,10.20
2019-05-19T01:30:06.064Z,10.40
2019-05-19T01:31:22.054Z,10.80
2019-05-19T01:32:28.717Z,10.80
2019-05-19T01:33:19.285Z,11.40
2019-05-19T01:34:31.171Z,11.10
2019-05-19T01:35:39.060Z,10.80
2019-05-19T01:36:44.905Z,11.00
2019-05-19T01:38:04.062Z,11.20
2019-05-19T01:39:01.919Z,10.90
2019-05-19T01:39:57.748Z,11.60
2019-05-19T01:41:08.391Z,11.10
2019-05-19T01:42:24.656Z,12.00
2019-05-19T01:43:29.080Z,11.40
2019-05-19T01:44:34.006Z,11.30
2019-05-19T01:45:39.949Z,11.20
2019-05-19T01:46:39.342Z,10.80
2019-05-19T01:47:48.466Z,9.90
2019-05-19T01:48:49.186Z,10.40
2019-05-19T01:50:16.589Z,10.60
2019-05-19T01:51:04.155Z,11.30
2019-05-19T01:51:58.534Z,11.40
2019-05-19T01:53:16.048Z,11.00
2019-05-19T01:54:30.712Z,10.00
2019-05-19T01:55:25.170Z,10.10
2019-05-19T01:56:30.911Z,10.30
2019-05-19T01:57:46.901Z,10.40
2019-05-19T01:58:31.229Z,10.40
2019-05-19T01:59:47.111Z,10.30
2019-05-19T02:00:58.176Z,11.10
2019-05-19T02:02:03.101Z,10.30
2019-05-19T02:02:54.509Z,11.00
2019-05-19T02:04:12.741Z,11.10
2019-05-19T02:05:09.160Z,11.00
2019-05-19T02:06:20.126Z,11.20
2019-05-19T02:07:38.264Z,11.40
2019-05-19T02:08:25.566Z,11.10
2019-05-19T02:09:34.092Z,11.50
2019-05-19T02:10:44.216Z,10.80
2019-05-19T02:11:44.302Z,10.60
2019-05-19T02:12:45.871Z,11.00
2019-05-19T02:14:02.261Z,11.10
2019-05-19T02:14:59.296Z,10.90
2019-05-19T02:16:08.731Z,11.30
2019-05-19T02:17:07.913Z,11.60
2019-05-19T02:18:14.172Z,11.10
2019-05-19T02:19:23.305Z,11.20
2019-05-19T02:20:32.044Z,10.90
2019-05-19T02:21:32.515Z,10.50
2019-05-19T02:22:44.307Z,10.60
2019-05-19T02:23:47.584Z,10.90
2019-05-19T02:24:51.376Z,10.90
2019-05-19T02:25:54.055Z,11.10
2019-05-19T02:26:56.102Z,10.60
2019-05-19T02:28:03.378Z,10.80
2019-05-19T02:29:18.338Z,10.90
2019-05-19T02:30:15.986Z,11.00
2019-05-19T02:31:14.839Z,11.00
2019-05-19T02:32:34.353Z,11.20
2019-05-19T02:33:35.811Z,10.70
2019-05-19T02:34:33.631Z,10.80
2019-05-19T02:35:51.155Z,12.00
2019-05-19T02:36:52.075Z,11.40
2019-05-19T02:37:54.689Z,10.50
2019-05-19T02:39:02.337Z,10.90
2019-05-19T02:40:05.611Z,10.90
2019-05-19T02:41:09.205Z,10.40
2019-05-19T02:42:13.612Z,10.80
2019-05-19T02:43:18.026Z,10.40
2019-05-19T02:44:27.146Z,10.60
2019-05-19T02:45:33.091Z,10.40
2019-05-19T02:46:33.407Z,10.50
2019-05-19T02:47:48.160Z,10.70
2019-05-19T02:49:02.504Z,10.80
2019-05-19T02:49:54.113Z,11.30
2019-05-19T02:51:09.169Z,11.30
2019-05-19T02:52:13.379Z,11.60
2019-05-19T02:53:14.405Z,12.10
2019-05-19T02:54:25.166Z,11.40
2019-05-19T02:55:20.664Z,11.40
2019-05-19T02:56:30.000Z,11.30
2019-05-19T02:57:38.601Z,12.40
2019-05-19T02:58:41.783Z,12.80
2019-05-19T02:59:39.640Z,12.50
2019-05-19T03:00:48.143Z,12.70
2019-05-19T03:01:53.681Z,12.60
2019-05-19T03:03:01.060Z,12.70
2019-05-19T03:03:59.530Z,12.60
2019-05-19T03:05:17.334Z,11.20
2019-05-19T03:06:13.677Z,12.10
2019-05-19T03:07:29.660Z,11.90
2019-05-19T03:08:17.683Z,11.60
2019-05-19T03:09:33.260Z,11.60
2019-05-19T03:10:33.772Z,11.60
2019-05-19T03:11:51.085Z,11.50
2019-05-19T03:12:57.444Z,11.50
2019-05-19T03:13:59.395Z,12.40
2019-05-19T03:15:02.579Z,12.10
2019-05-19T03:16:14.155Z,12.00
2019-05-19T03:17:12.738Z,12.80
2019-05-19T03:18:20.514Z,13.00
2019-05-19T03:19:27.386Z,13.20
2019-05-19T03:20:24.119Z,13.30
2019-05-19T03:21:31.492Z,12.50
2019-05-19T03:22:47.784Z,12.70
2019-05-19T03:23:45.741Z,12.60
2019-05-19T03:24:56.501Z,13.20
2019-05-19T03:26:03.267Z,12.30
2019-05-19T03:27:18.430Z,11.80
2019-05-19T03:28:12.905Z,11.80
2019-05-19T03:29:09.235Z,11.30
2019-05-19T03:30:28.893Z,11.70
2019-05-19T03:31:32.489Z,12.80
2019-05-19T03:32:39.456Z,12.40
2019-05-19T03:33:26.762Z,12.40
2019-05-19T03:34:37.726Z,11.60
2019-05-19T03:35:45.546Z,11.70
2019-05-19T03:36:56.280Z,10.60
2019-05-19T03:38:10.209Z,11.00
2019-05-19T03:39:02.433Z,11.00
2019-05-19T03:40:15.346Z,11.10
2019-05-19T03:41:13.405Z,10.20
2019-05-19T03:42:24.574Z,9.90
2019-05-19T03:43:34.410Z,10.60
2019-05-19T03:44:26.128Z,11.00
2019-05-19T03:45:45.483Z,11.20
2019-05-19T03:46:33.510Z,12.10
2019-05-19T03:47:53.075Z,10.90
2019-05-19T03:48:57.487Z,11.10
2019-05-19T03:50:01.589Z,10.90
2019-05-19T03:51:03.848Z,11.40
2019-05-19T03:52:07.540Z,11.20
2019-05-19T03:53:18.608Z,11.20
2019-05-19T03:54:23.121Z,11.90
2019-05-19T03:55:24.559Z,11.90
2019-05-19T03:56:25.797Z,11.40
2019-05-19T03:57:42.799Z,11.60
2019-05-19T03:58:42.295Z,11.60
2019-05-19T03:59:48.198Z,11.20
2019-05-19T04:00:58.897Z,11.00
2019-05-19T04:01:55.531Z,11.30
2019-05-19T04:03:04.254Z,11.10
2019-05-19T04:04:08.240Z,11.40
2019-05-19T04:05:16.658Z,12.10
2019-05-19T04:06:30.472Z,12.20
2019-05-19T04:07:21.567Z,11.20
2019-05-19T04:08:36.837Z,11.50
2019-05-19T04:09:34.608Z,11.00
2019-05-19T04:10:45.460Z,10.70
2019-05-19T04:11:48.321Z,11.10
2019-05-19T04:13:05.743Z,11.00
2019-05-19T04:14:00.324Z,11.00
2019-05-19T04:15:06.366Z,10.70
2019-05-19T04:16:11.393Z,11.40
2019-05-19T04:17:16.109Z,11.10
2019-05-19T04:18:18.090Z,11.00
2019-05-19T04:19:25.139Z,11.10
2019-05-19T04:20:31.385Z,11.40
2019-05-19T04:21:47.551Z,12.00
2019-05-19T04:22:52.000Z,11.70
2019-05-19T04:23:53.526Z,11.10
2019-05-19T04:24:50.772Z,12.10
2019-05-19T04:25:59.377Z,11.50
2019-05-19T04:27:19.665Z,12.20
2019-05-19T04:28:23.453Z,12.10
2019-05-19T04:29:21.521Z,12.20
2019-05-19T04:30:26.853Z,12.40
2019-05-19T04:31:33.306Z,12.10
2019-05-19T04:32:41.200Z,11.90
2019-05-19T04:33:46.633Z,12.50
2019-05-19T04:34:52.482Z,12.50
2019-05-19T04:35:48.283Z,12.60
2019-05-19T04:37:04.268Z,13.10
2019-05-19T04:38:02.695Z,13.50
2019-05-19T04:39:11.346Z,13.60
2019-05-19T04:40:15.446Z,13.10
2019-05-19T04:41:20.680Z,12.80
2019-05-19T04:42:26.327Z,13.30
2019-05-19T04:43:29.843Z,11.80
2019-05-19T04:44:43.223Z,13.20
2019-05-19T04:45:31.461Z,13.40
2019-05-19T04:46:49.281Z,13.60
2019-05-19T04:47:48.057Z,14.30
2019-05-19T04:49:04.142Z,14.10
2019-05-19T04:50:04.257Z,14.30
2019-05-19T04:51:13.578Z,13.50
2019-05-19T04:52:26.180Z,12.90
2019-05-19T04:53:17.071Z,12.70
2019-05-19T04:54:21.484Z,12.50
2019-05-19T04:55:28.457Z,12.70
2019-05-19T04:56:33.168Z,12.90
2019-05-19T04:57:46.499Z,13.60
2019-05-19T04:58:46.392Z,14.10
2019-05-19T04:59:56.643Z,14.00
2019-05-19T05:01:00.335Z,14.40
2019-05-19T05:02:09.554Z,14.80
2019-05-19T05:03:03.315Z,14.40
2019-05-19T05:04:22.680Z,15.00
2019-05-19T05:05:14.388Z,15.70
2019-05-19T05:06:24.329Z,15.80
2019-05-19T05:07:32.629Z,15.40
2019-05-19T05:08:40.830Z,15.80
2019-05-19T05:09:51.487Z,16.90
2019-05-19T05:10:46.170Z,17.00
2019-05-19T05:11:51.910Z,17.10
2019-05-19T05:13:04.620Z,17.50
2019-05-19T05:14:07.219Z,17.70
2019-05-19T05:15:01.144Z,17.30
2019-05-19T05:16:25.113Z,16.70
2019-05-19T05:17:26.089Z,16.80
2019-05-19T05:18:32.396Z,18.20
2019-05-19T05:19:39.062Z,18.70
2019-05-19T05:20:33.538Z,19.10
2019-05-19T05:21:47.167Z,18.50
2019-05-19T05:23:01.737Z,19.50
2019-05-19T05:23:47.391Z,19.70
2019-05-19T05:24:56.095Z,20.20
2019-05-19T05:26:04.497Z,19.90
2019-05-19T05:27:07.372Z,19.60
2019-05-19T05:28:11.587Z,19.20
2019-05-19T05:29:23.056Z,19.20
2019-05-19T05:30:19.579Z,19.70
2019-05-19T05:31:33.003Z,19.70
2019-05-19T05:32:38.227Z,20.30
2019-05-19T05:33:41.309Z,20.20
2019-05-19T05:34:45.103Z,20.50
2019-05-19T05:35:51.367Z,20.70
2019-05-19T05:37:07.646Z,20.60
2019-05-19T05:38:08.574Z,20.70
2019-05-19T05:39:09.094Z,21.20
2019-05-19T05:40:15.253Z,20.60
2019-05-19T05:41:24.577Z,20.50
2019-05-19T05:42:31.559Z,20.10
2019-05-19T05:43:32.571Z,20.70
2019-05-19T05:44:32.267Z,21.10
2019-05-19T05:45:53.060Z,22.10
2019-05-19T05:46:49.181Z,21.20
2019-05-19T05:47:54.305Z,21.90
2019-05-19T05:49:03.325Z,21.80
2019-05-19T05:50:02.104Z,22.30
2019-05-19T05:51:13.375Z,22.20
2019-05-19T05:52:37.222Z,21.90
2019-05-19T05:53:35.299Z,22.20
2019-05-19T05:54:30.085Z,22.60
2019-05-19T05:55:27.428Z,23.40
2019-05-19T05:56:41.668Z,24.00
2019-05-19T05:57:57.243Z,23.00
2019-05-19T05:58:52.436Z,22.80
2019-05-19T05:59:58.385Z,23.40
2019-05-19T06:00:58.696Z,22.90
2019-05-19T06:02:06.694Z,22.70
2019-05-19T06:03:20.648Z,22.50
2019-05-19T06:04:15.307Z,23.00
2019-05-19T06:05:26.780Z,22.30
2019-05-19T06:06:22.489Z,23.50
2019-05-19T06:07:27.306Z,22.30
2019-05-19T06:08:44.106Z,22.30
2019-05-19T06:09:46.162Z,24.00
2019-05-19T06:10:48.423Z,24.80
2019-05-19T06:12:00.716Z,24.00
2019-05-19T06:13:06.665Z,23.60
2019-05-19T06:14:07.795Z,24.10
2019-05-19T06:15:21.216Z,23.70
2019-05-19T06:16:23.172Z,24.30
2019-05-19T06:17:40.794Z,24.50
2019-05-19T06:18:35.166Z,24.20
2019-05-19T06:19:53.502Z,24.40
2019-05-19T06:20:57.300Z,24.20
2019-05-19T06:21:59.455Z,24.10
2019-05-19T06:22:57.035Z,23.90
2019-05-19T06:23:52.001Z,23.20
2019-05-19T06:25:04.908Z,23.20
2019-05-19T06:26:33.787Z,22.80
2019-05-19T06:27:22.221Z,22.60
2019-05-19T06:28:32.778Z,22.90
2019-05-19T06:29:31.655Z,23.70
2019-05-19T06:30:43.642Z,24.00
2019-05-19T06:31:40.168Z,23.00
2019-05-19T06:33:19.705Z,22.70
2019-05-19T06:34:01.791Z,23.50
2019-05-19T06:35:59.243Z,23.30
2019-05-19T06:37:11.539Z,23.20
2019-05-19T06:38:40.637Z,24.60
2019-05-19T06:39:22.716Z,23.90
2019-05-19T06:40:49.567Z,23.60
2019-05-19T06:41:14.125Z,23.50
2019-05-19T06:42:34.822Z,24.30
2019-05-19T06:43:56.020Z,23.90
2019-05-19T06:44:56.130Z,24.40
2019-05-19T06:46:12.014Z,23.70
2019-05-19T06:46:48.058Z,23.30
2019-05-19T06:48:23.187Z,23.80
2019-05-19T06:48:54.113Z,24.30
2019-05-19T06:50:23.201Z,24.00
2019-05-19T06:51:25.363Z,24.70
2019-05-19T06:52:22.196Z,24.80
2019-05-19T06:53:29.365Z,24.90
2019-05-19T06:54:14.005Z,24.40
2019-05-19T06:55:32.254Z,25.00
2019-05-19T06:56:36.456Z,24.70
2019-05-19T06:57:43.323Z,24.50
2019-05-19T06:58:44.347Z,25.60
2019-05-19T06:59:47.427Z,24.20
2019-05-19T07:00:53.476Z,24.30
2019-05-19T07:01:53.381Z,24.40
2019-05-19T07:03:15.709Z,24.80
2019-05-19T07:04:15.822Z,23.20
2019-05-19T07:05:14.598Z,24.10
2019-05-19T07:06:18.086Z,25.20
2019-05-19T07:07:27.516Z,26.10
2019-05-19T07:08:35.725Z,26.30
2019-05-19T07:09:34.231Z,25.20
2019-05-19T07:10:39.721Z,25.30
2019-05-19T07:11:50.071Z,24.50
2019-05-19T07:12:50.490Z,25.90
2019-05-19T07:14:07.800Z,26.50
2019-05-19T07:15:02.277Z,26.70
2019-05-19T07:16:11.807Z,25.60
2019-05-19T07:17:21.032Z,27.40
2019-05-19T07:18:15.916Z,27.70
2019-05-19T07:19:33.636Z,27.10
2019-05-19T07:20:31.393Z,27.00
2019-05-19T07:21:34.777Z,26.80
2019-05-19T07:22:42.650Z,26.70
2019-05-19T07:23:50.058Z,28.20
2019-05-19T07:25:05.826Z,26.80
2019-05-19T07:25:57.538Z,26.10
2019-05-19T07:27:06.252Z,26.20
2019-05-19T07:28:12.504Z,25.50
2019-05-19T07:29:17.578Z,24.50
2019-05-19T07:30:18.971Z,23.30
2019-05-19T07:31:25.425Z,22.80
2019-05-19T07:32:29.222Z,23.20
2019-05-19T07:33:31.892Z,21.90
2019-05-19T07:34:45.419Z,20.80
2019-05-19T07:35:49.518Z,21.00
2019-05-19T07:36:48.603Z,20.90
2019-05-19T07:38:06.918Z,20.10
2019-05-19T07:39:13.909Z,19.80
2019-05-19T07:40:11.049Z,19.20
2019-05-19T07:41:21.604Z,19.10
2019-05-19T07:42:19.254Z,19.80
2019-05-19T07:43:29.091Z,19.80
2019-05-19T07:44:31.045Z,17.70
2019-05-19T07:45:37.210Z,18.70
2019-05-19T07:46:41.002Z,18.50
2019-05-19T07:47:50.317Z,18.80
2019-05-19T07:48:59.027Z,18.50
2019-05-19T07:50:02.827Z,18.10
2019-05-19T07:51:16.344Z,16.50
2019-05-19T07:52:16.459Z,15.90
2019-05-19T07:53:20.978Z,15.00
2019-05-19T07:54:19.438Z,15.40
2019-05-19T07:55:24.057Z,14.40
2019-05-19T07:56:33.075Z,14.50
2019-05-19T07:57:41.168Z,14.50
2019-05-19T07:58:45.168Z,13.90
2019-05-19T07:59:45.689Z,14.20
2019-05-19T08:01:05.767Z,13.40
2019-05-19T08:02:04.751Z,13.90
2019-05-19T08:03:06.802Z,13.30
2019-05-19T08:04:08.052Z,14.10
2019-05-19T08:05:24.838Z,13.60
2019-05-19T08:06:40.522Z,13.80
2019-05-19T08:07:28.136Z,13.10
2019-05-19T08:08:39.401Z,13.40
2019-05-19T08:09:39.725Z,13.90
2019-05-19T08:10:49.140Z,13.60
2019-05-19T08:11:51.506Z,13.60
2019-05-19T08:13:01.238Z,13.90
2019-05-19T08:14:16.811Z,15.10
2019-05-19T08:15:11.193Z,14.90
2019-05-19T08:16:13.043Z,14.70
2019-05-19T08:17:25.734Z,13.30
2019-05-19T08:18:21.962Z,12.40
2019-05-19T08:19:28.415Z,12.00
2019-05-19T08:20:33.447Z,12.10
2019-05-19T08:21:41.026Z,11.40
2019-05-19T08:22:51.388Z,11.60
2019-05-19T08:23:59.226Z,10.90
2019-05-19T08:25:01.123Z,10.60
2019-05-19T08:26:05.663Z,11.20
2019-05-19T08:27:10.868Z,11.70
2019-05-19T08:28:13.324Z,11.60
2019-05-19T08:29:19.269Z,11.90
2019-05-19T08:30:30.485Z,10.70
2019-05-19T08:31:37.823Z,11.80
2019-05-19T08:32:46.835Z,11.30
2019-05-19T08:33:46.964Z,10.50
2019-05-19T08:34:47.369Z,10.20
2019-05-19T08:36:00.791Z,9.50
2019-05-19T08:37:12.669Z,9.30
2019-05-19T08:38:12.981Z,8.80
2019-05-19T08:39:12.783Z,9.00
2019-05-19T08:40:27.953Z,8.80
2019-05-19T08:41:34.097Z,8.50
2019-05-19T08:42:35.541Z,8.30
2019-05-19T08:43:45.684Z,8.40
2019-05-19T08:44:30.846Z,8.50
2019-05-19T08:46:00.339Z,9.00
2019-05-19T08:46:55.531Z,9.20
2019-05-19T08:48:13.565Z,9.60
2019-05-19T08:49:16.746Z,9.50
2019-05-19T08:50:09.483Z,9.30
2019-05-19T08:51:40.004Z,8.50
2019-05-19T08:52:32.034Z,9.60
2019-05-19T08:53:53.123Z,9.20
2019-05-19T08:54:31.838Z,9.20
2019-05-19T08:55:43.623Z,8.10
2019-05-19T08:57:32.567Z,8.00
2019-05-19T08:58:11.995Z,8.30
2019-05-19T08:59:12.614Z,8.00
2019-05-19T09:00:26.342Z,7.80
2019-05-19T09:01:54.100Z,7.70
2019-05-19T09:02:34.139Z,7.80
2019-05-19T09:03:37.734Z,7.90
2019-05-19T09:04:51.470Z,7.30
2019-05-19T09:05:47.816Z,8.60
2019-05-19T09:07:01.715Z,8.50
2019-05-19T09:07:58.341Z,8.80
2019-05-19T09:09:18.733Z,8.70
2019-05-19T09:10:09.620Z,8.80
2019-05-19T09:11:07.883Z,8.30
2019-05-19T09:12:18.651Z,8.30
2019-05-19T09:13:15.578Z,8.30
2019-05-19T09:14:21.010Z,8.70
2019-05-19T09:15:34.229Z,7.70
2019-05-19T09:16:40.174Z,7.70
2019-05-19T09:17:54.393Z,7.70
2019-05-19T09:18:47.567Z,7.20
2019-05-19T09:19:56.682Z,6.50
2019-05-19T09:21:00.479Z,7.00
2019-05-19T09:22:01.203Z,7.40
2019-05-19T09:23:35.104Z,7.10
2019-05-19T09:24:30.150Z,7.80
2019-05-19T09:25:17.295Z,8.40
2019-05-19T09:26:24.680Z,8.10
2019-05-19T09:27:35.749Z,6.70
2019-05-19T09:28:31.769Z,6.80
2019-05-19T09:29:52.346Z,7.20
2019-05-19T09:30:49.079Z,6.80
2019-05-19T09:31:47.141Z,7.40
2019-05-19T09:32:58.720Z,7.90
2019-05-19T09:34:01.896Z,9.00
2019-05-19T09:35:07.956Z,9.20
2019-05-19T09:36:22.084Z,9.10
2019-05-19T09:37:21.680Z,8.10
2019-05-19T09:38:14.826Z,8.80
2019-05-19T09:39:28.352Z,8.60
2019-05-19T09:40:39.627Z,8.40
2019-05-19T09:41:38.193Z,8.60
2019-05-19T09:42:43.835Z,9.20
2019-05-19T09:43:45.993Z,9.30
2019-05-19T09:45:01.985Z,8.70
2019-05-19T09:46:14.147Z,8.40
2019-05-19T09:47:07.721Z,8.80
2019-05-19T09:48:23.295Z,8.00
2019-05-19T09:49:13.163Z,8.10
2019-05-19T09:50:29.151Z,8.00
2019-05-19T09:51:36.422Z,8.80
2019-05-19T09:52:45.442Z,9.30
2019-05-19T09:53:42.479Z,9.40
2019-05-19T09:54:45.920Z,9.10
2019-05-19T09:55:52.634Z,8.60
2019-05-19T09:57:01.864Z,8.70
2019-05-19T09:58:03.909Z,8.80
2019-05-19T09:59:10.874Z,9.00
2019-05-19T10:00:13.006Z,9.30
2019-05-19T10:01:18.675Z,9.70
2019-05-19T10:02:25.042Z,9.40
2019-05-19T10:03:22.372Z,9.30
2019-05-19T10:04:31.800Z,9.30
2019-05-19T10:05:41.024Z,10.00
2019-05-19T10:06:59.352Z,9.70
2019-05-19T10:07:53.229Z,9.50
2019-05-19T10:08:58.654Z,9.20
2019-05-19T10:10:07.783Z,10.10
2019-05-19T10:11:09.727Z,9.80
2019-05-19T10:12:13.322Z,9.40
2019-05-19T10:13:16.808Z,9.60
2019-05-19T10:14:22.240Z,10.10
2019-05-19T10:15:25.322Z,9.90
2019-05-19T10:16:33.527Z,9.80
2019-05-19T10:17:43.926Z,9.30
2019-05-19T10:18:44.358Z,9.30
2019-05-19T10:19:55.765Z,9.10
2019-05-19T10:20:50.503Z,8.90
2019-05-19T10:21:59.985Z,8.90
2019-05-19T10:23:17.085Z,9.40
2019-05-19T10:24:11.364Z,8.80
2019-05-19T10:25:21.557Z,9.10
2019-05-19T10:26:24.886Z,8.60
2019-05-19T10:27:26.635Z,8.60
2019-05-19T10:28:34.936Z,9.10
2019-05-19T10:29:42.009Z,9.60
2019-05-19T10:30:52.664Z,8.90
2019-05-19T10:31:57.180Z,8.90
2019-05-19T10:32:52.985Z,9.00
2019-05-19T10:34:07.848Z,8.50
2019-05-19T10:35:06.118Z,8.10
2019-05-19T10:36:25.363Z,8.70
2019-05-19T10:37:16.260Z,9.20
2019-05-19T10:38:28.757Z,9.50
2019-05-19T10:39:31.527Z,9.20
2019-05-19T10:40:45.359Z,9.20
2019-05-19T10:41:32.471Z,9.70
2019-05-19T10:42:48.242Z,9.80
2019-05-19T10:43:55.617Z,8.80
2019-05-19T10:44:57.366Z,8.70
2019-05-19T10:46:08.753Z,10.00
2019-05-19T10:47:04.545Z,9.50
2019-05-19T10:48:13.772Z,10.20
2019-05-19T10:49:21.558Z,9.90
2019-05-19T10:50:29.052Z,9.80
2019-05-19T10:51:28.951Z,9.80
2019-05-19T10:52:39.909Z,9.10
2019-05-19T10:53:44.015Z,9.20
2019-05-19T10:54:52.642Z,9.10
2019-05-19T10:55:53.550Z,9.10
2019-05-19T10:57:03.596Z,9.60
2019-05-19T10:58:14.351Z,11.30
2019-05-19T10:59:11.595Z,10.80
2019-05-19T11:00:15.806Z,11.20
2019-05-19T11:01:26.969Z,10.70
2019-05-19T11:02:37.633Z,11.00
2019-05-19T11:03:29.850Z,11.00
2019-05-19T11:04:39.685Z,11.60
2019-05-19T11:05:50.343Z,10.90
2019-05-19T11:06:50.041Z,10.60
2019-05-19T11:07:48.622Z,10.70
2019-05-19T11:09:09.522Z,10.10
2019-05-19T11:10:09.731Z,9.00
2019-05-19T11:11:16.080Z,9.40
2019-05-19T11:12:20.285Z,9.10
2019-05-19T11:13:31.463Z,9.70
2019-05-19T11:14:33.813Z,8.90
2019-05-19T11:15:40.589Z,9.30
2019-05-19T11:16:43.078Z,9.20
2019-05-19T11:17:47.048Z,9.70
2019-05-19T11:18:53.107Z,9.80
2019-05-19T11:20:00.185Z,9.80
2019-05-19T11:21:06.549Z,10.90
2019-05-19T11:22:06.018Z,10.40
2019-05-19T11:23:20.167Z,10.10
2019-05-19T11:24:16.432Z,10.30
2019-05-19T11:25:34.519Z,10.00
2019-05-19T11:26:28.268Z,10.30
2019-05-19T11:27:33.404Z,10.40
2019-05-19T11:28:50.312Z,9.90
2019-05-19T11:29:49.892Z,10.00
2019-05-19T11:30:51.245Z,9.30
2019-05-19T11:32:00.460Z,9.10
2019-05-19T11:33:09.781Z,9.30
2019-05-19T11:34:17.467Z,9.30
2019-05-19T11:35:27.305Z,8.90
2019-05-19T11:36:39.812Z,8.40
2019-05-19T11:37:42.067Z,8.10
2019-05-19T11:38:39.818Z,8.90
2019-05-19T11:39:41.768Z,8.00
2019-05-19T11:41:10.142Z,8.20
2019-05-19T11:41:59.089Z,8.00
2019-05-19T11:42:54.569Z,9.30
2019-05-19T11:44:06.995Z,10.50
2019-05-19T11:45:04.637Z,11.30
2019-05-19T11:46:06.695Z,10.10
2019-05-19T11:47:25.032Z,10.00
2019-05-19T11:48:33.740Z,9.30
2019-05-19T11:49:46.549Z,9.60
2019-05-19T11:50:33.654Z,9.40
2019-05-19T11:51:38.061Z,8.80
2019-05-19T11:52:45.444Z,9.20
2019-05-19T11:53:46.276Z,8.80
2019-05-19T11:55:09.731Z,8.60
2019-05-19T11:56:06.259Z,8.50
2019-05-19T11:57:18.853Z,9.80
2019-05-19T11:58:15.074Z,8.50
2019-05-19T11:59:30.950Z,8.20
2019-05-19T12:00:33.520Z,9.20
2019-05-19T12:01:32.217Z,9.00
2019-05-19T12:03:29.851Z,8.80
2019-05-19T12:04:23.919Z,8.00
2019-05-19T12:05:33.798Z,8.50
2019-05-19T12:06:41.652Z,8.80
2019-05-19T12:07:41.660Z,9.20
2019-05-19T12:08:35.316Z,9.70
2019-05-19T12:09:43.612Z,9.70
2019-05-19T12:10:50.995Z,9.10
2019-05-19T12:11:38.250Z,9.00
2019-05-19T12:12:48.242Z,8.80
2019-05-19T12:14:19.488Z,8.50
2019-05-19T12:15:21.952Z,8.10
2019-05-19T12:16:32.703Z,7.80
2019-05-19T12:17:00.353Z,8.30
2019-05-19T12:18:21.770Z,8.10
2019-05-19T12:19:37.027Z,8.20
2019-05-19T12:20:30.705Z,7.50
2019-05-19T12:21:50.762Z,8.00
2019-05-19T12:22:51.703Z,8.30
2019-05-19T12:23:45.773Z,7.60
2019-05-19T12:24:44.332Z,8.30
2019-05-19T12:25:38.433Z,8.20
2019-05-19T12:27:05.543Z,7.60
2019-05-19T12:28:01.656Z,7.20
2019-05-19T12:29:19.889Z,6.80
2019-05-19T12:30:23.899Z,7.10
2019-05-19T12:31:38.853Z,6.70
2019-05-19T12:32:33.429Z,6.90
2019-05-19T12:34:00.263Z,6.90
2019-05-19T12:34:42.365Z,6.60
2019-05-19T12:35:42.154Z,6.60
2019-05-19T12:36:57.731Z,6.10
2019-05-19T12:37:53.430Z,6.40
2019-05-19T12:38:54.665Z,6.40
2019-05-19T12:40:02.158Z,6.50
2019-05-19T12:41:20.382Z,6.40
2019-05-19T12:42:28.174Z,6.30
2019-05-19T12:43:17.235Z,6.40
2019-05-19T12:44:24.909Z,6.40
2019-05-19T12:45:26.763Z,5.70
2019-05-19T12:46:40.895Z,6.10
2019-05-19T12:47:50.431Z,6.80
2019-05-19T12:48:42.142Z,6.60
2019-05-19T12:49:50.453Z,6.40
2019-05-19T12:50:58.539Z,6.20
2019-05-19T12:52:10.220Z,6.80
2019-05-19T12:53:03.582Z,6.40
2019-05-19T12:54:07.069Z,6.50
2019-05-19T12:55:27.144Z,6.80
2019-05-19T12:56:39.167Z,6.30
2019-05-19T12:57:40.259Z,6.70
2019-05-19T12:58:30.955Z,6.30
2019-05-19T12:59:47.951Z,6.10
2019-05-19T13:00:40.793Z,6.90
2019-05-19T13:02:00.992Z,6.40
2019-05-19T13:02:55.855Z,6.70
2019-05-19T13:03:56.599Z,7.10
2019-05-19T13:05:06.345Z,7.70
2019-05-19T13:06:09.190Z,8.10
2019-05-19T13:07:14.934Z,7.90
2019-05-19T13:08:18.011Z,8.80
2019-05-19T13:09:26.005Z,7.80
2019-05-19T13:10:36.259Z,8.50
2019-05-19T13:11:34.319Z,9.20
2019-05-19T13:12:50.190Z,10.60
2019-05-19T13:13:57.163Z,10.80
2019-05-19T13:14:54.505Z,10.90
2019-05-19T13:16:01.578Z,9.90
2019-05-19T13:17:11.319Z,9.60
2019-05-19T13:18:16.746Z,8.70
2019-05-19T13:19:11.840Z,8.50
2019-05-19T13:20:20.969Z,7.20
2019-05-19T13:21:34.379Z,6.60
2019-05-19T13:22:36.229Z,6.40
2019-05-19T13:23:39.617Z,6.20
2019-05-19T13:24:43.312Z,5.30
2019-05-19T13:25:52.022Z,5.00
2019-05-19T13:26:56.096Z,5.30
2019-05-19T13:28:02.169Z,5.60
2019-05-19T13:29:06.793Z,5.50
2019-05-19T13:30:09.352Z,5.30
2019-05-19T13:31:14.991Z,5.10
2019-05-19T13:32:19.913Z,5.20
2019-05-19T13:33:33.962Z,5.30
2019-05-19T13:34:35.802Z,5.20
2019-05-19T13:35:35.200Z,4.80
2019-05-19T13:36:43.804Z,4.80
2019-05-19T13:37:50.364Z,5.10
2019-05-19T13:38:57.435Z,5.10
2019-05-19T13:40:00.110Z,5.20
2019-05-19T13:41:15.676Z,5.30
2019-05-19T13:42:36.671Z,5.10
2019-05-19T13:43:17.128Z,5.40
2019-05-19T13:44:40.885Z,5.30
2019-05-19T13:45:31.680Z,4.90
2019-05-19T13:46:37.521Z,4.70
2019-05-19T13:47:44.594Z,5.20
2019-05-19T13:49:11.638Z,5.40
2019-05-19T13:49:59.367Z,4.80
2019-05-19T13:51:04.795Z,5.00
2019-05-19T13:52:21.176Z,5.20
2019-05-19T13:53:12.173Z,4.70
2019-05-19T13:54:26.330Z,5.00
2019-05-19T13:55:14.645Z,4.70
2019-05-19T13:56:25.712Z,4.60
2019-05-19T13:57:26.132Z,4.90
2019-05-19T13:58:31.458Z,4.80
2019-05-19T13:59:39.362Z,5.10
2019-05-19T14:00:43.255Z,5.00
2019-05-19T14:01:52.677Z,5.10
2019-05-19T14:02:59.345Z,5.00
2019-05-19T14:04:02.530Z,5.60
2019-05-19T14:05:06.214Z,5.10
2019-05-19T14:06:09.703Z,5.10
2019-05-19T14:07:18.728Z,5.40
2019-05-19T14:08:23.435Z,5.10
2019-05-19T14:09:39.623Z,5.10
2019-05-19T14:10:35.023Z,5.30
2019-05-19T14:11:42.307Z,5.30
2019-05-19T14:12:44.563Z,5.30
2019-05-19T14:13:54.101Z,5.50
2019-05-19T14:15:04.160Z,5.30
2019-05-19T14:15:56.669Z,5.50